createdAt,value
2023-05-05T00:01:01.087Z,100645.80
2023-05-05T00:03:29.415Z,100640.60
2023-05-05T00:05:58.142Z,100637.60
2023-05-05T00:08:26.246Z,100633.00
2023-05-05T00:10:54.228Z,100626.60
2023-05-05T00:13:22.128Z,100627.00
2023-05-05T00:15:53.610Z,100623.40
2023-05-05T00:18:21.530Z,100624.80
2023-05-05T00:20:49.872Z,100625.60
2023-05-05T00:23:19.674Z,100622.80
2023-05-05T00:25:48.045Z,100622.00
2023-05-05T00:28:16.212Z,100624.20
2023-05-05T00:30:44.197Z,100622.20
2023-05-05T00:33:12.462Z,100622.80
2023-05-05T00:35:40.497Z,100620.40
2023-05-05T00:38:08.714Z,100623.20
2023-05-05T00:40:38.003Z,100627.40
2023-05-05T00:43:06.180Z,100625.20
2023-05-05T00:45:34.147Z,100624.20
2023-05-05T00:48:06.733Z,100627.00
2023-05-05T00:50:35.316Z,100621.80
2023-05-05T00:53:04.574Z,100621.00
2023-05-05T00:55:33.610Z,100621.40
2023-05-05T00:58:02.811Z,100619.00
2023-05-05T01:00:30.957Z,100616.60
2023-05-05T01:02:59.258Z,100616.40
2023-05-05T01:05:33.268Z,100619.00
2023-05-05T01:08:13.693Z,100617.40
2023-05-05T01:10:46.622Z,100619.20
2023-05-05T01:13:30.454Z,100618.60
2023-05-05T01:16:01.807Z,100615.20
2023-05-05T01:18:31.307Z,100611.60
2023-05-05T01:21:17.718Z,100612.00
2023-05-05T01:24:08.707Z,100609.20
2023-05-05T01:26:49.247Z,100610.80
2023-05-05T01:29:58.508Z,100609.20
2023-05-05T01:32:29.343Z,100613.60
2023-05-05T01:35:04.213Z,100611.40
2023-05-05T01:37:39.033Z,100611.20
2023-05-05T01:40:10.722Z,100604.00
2023-05-05T01:42:38.833Z,100598.80
2023-05-05T01:45:08.244Z,100595.60
2023-05-05T01:47:36.281Z,100591.00
2023-05-05T01:50:05.189Z,100584.60
2023-05-05T01:52:33.552Z,100586.00
2023-05-05T01:55:02.581Z,100588.80
2023-05-05T01:57:31.394Z,100583.20
2023-05-05T01:59:59.414Z,100586.40
2023-05-05T02:02:30.560Z,100584.20
2023-05-05T02:04:58.661Z,100583.80
2023-05-05T02:07:26.696Z,100585.20
2023-05-05T02:09:55.687Z,100578.40
2023-05-05T02:12:24.086Z,100577.60
2023-05-05T02:14:51.908Z,100570.80
2023-05-05T02:17:19.778Z,100566.20
2023-05-05T02:19:49.823Z,100560.80
2023-05-05T02:22:17.822Z,100568.20
2023-05-05T02:24:45.960Z,100568.20
2023-05-05T02:27:14.645Z,100570.00
2023-05-05T02:29:48.453Z,100567.80
2023-05-05T02:32:40.098Z,100565.80
2023-05-05T02:35:15.625Z,100561.20
2023-05-05T02:37:45.241Z,100558.80
2023-05-05T02:40:13.432Z,100560.00
2023-05-05T02:42:42.218Z,100563.20
2023-05-05T02:45:12.315Z,100565.40
2023-05-05T02:47:42.299Z,100563.20
2023-05-05T02:50:11.580Z,100564.60
2023-05-05T02:52:42.762Z,100563.20
2023-05-05T02:55:11.433Z,100558.80
2023-05-05T02:57:53.913Z,100561.20
2023-05-05T03:00:38.697Z,100563.80
2023-05-05T03:03:07.650Z,100567.00
2023-05-05T03:05:41.231Z,100563.40
2023-05-05T03:08:10.279Z,100559.60
2023-05-05T03:10:44.925Z,100556.80
2023-05-05T03:13:13.486Z,100554.40
2023-05-05T03:15:48.522Z,100555.00
2023-05-05T03:18:18.776Z,100552.40
2023-05-05T03:20:49.857Z,100547.80
2023-05-05T03:23:22.764Z,100547.20
2023-05-05T03:25:53.992Z,100544.60
2023-05-05T03:28:34.696Z,100549.40
2023-05-05T03:31:06.366Z,100551.80
2023-05-05T03:33:35.564Z,100559.40
2023-05-05T03:36:04.124Z,100559.20
2023-05-05T03:38:32.230Z,100558.60
2023-05-05T03:41:03.705Z,100554.60
2023-05-05T03:43:32.228Z,100557.20
2023-05-05T03:46:00.620Z,100561.60
2023-05-05T03:48:29.521Z,100565.80
2023-05-05T03:50:57.421Z,100563.60
2023-05-05T03:53:26.539Z,100563.20
2023-05-05T03:55:55.532Z,100561.40
2023-05-05T03:58:23.503Z,100564.80
2023-05-05T04:00:51.693Z,100568.60
2023-05-05T04:03:20.150Z,100571.00
2023-05-05T04:05:48.981Z,100572.60
2023-05-05T04:08:17.098Z,100574.20
2023-05-05T04:10:45.953Z,100573.80
2023-05-05T04:13:14.301Z,100577.40
2023-05-05T04:15:46.292Z,100578.80
2023-05-05T04:18:14.461Z,100588.00
2023-05-05T04:20:42.502Z,100587.00
2023-05-05T04:23:11.006Z,100587.00
2023-05-05T04:25:39.185Z,100594.20
2023-05-05T04:28:07.308Z,100593.00
2023-05-05T04:30:35.314Z,100593.60
2023-05-05T04:33:03.752Z,100596.60
2023-05-05T04:35:31.985Z,100598.20
2023-05-05T04:38:00.018Z,100598.40
2023-05-05T04:40:29.918Z,100605.60
2023-05-05T04:42:58.034Z,100605.20
2023-05-05T04:45:27.005Z,100607.40
2023-05-05T04:47:55.943Z,100606.00
2023-05-05T04:50:24.096Z,100610.80
2023-05-05T04:52:52.754Z,100608.00
2023-05-05T04:55:21.318Z,100609.60
2023-05-05T04:57:49.164Z,100611.00
2023-05-05T05:00:17.845Z,100603.80
2023-05-05T05:02:45.998Z,100608.80
2023-05-05T05:05:14.287Z,100610.00
2023-05-05T05:07:42.317Z,100610.80
2023-05-05T05:10:11.526Z,100615.00
2023-05-05T05:12:39.392Z,100616.60
2023-05-05T05:15:08.358Z,100616.00
2023-05-05T05:17:36.365Z,100620.80
2023-05-05T05:20:05.107Z,100623.60
2023-05-05T05:22:33.269Z,100625.60
2023-05-05T05:25:02.408Z,100628.20
2023-05-05T05:30:45.316Z,100626.80
2023-05-05T05:33:14.750Z,100629.20
2023-05-05T05:35:43.264Z,100631.40
2023-05-05T05:38:11.694Z,100635.20
2023-05-05T05:40:39.731Z,100638.00
2023-05-05T05:43:07.866Z,100636.20
2023-05-05T05:45:36.489Z,100638.00
2023-05-05T05:48:05.619Z,100632.80
2023-05-05T05:50:33.679Z,100628.60
2023-05-05T05:53:01.943Z,100637.60
2023-05-05T05:55:30.143Z,100637.60
2023-05-05T05:57:58.179Z,100643.80
2023-05-05T06:00:26.438Z,100641.40
2023-05-05T06:02:57.729Z,100640.40
2023-05-05T06:05:27.581Z,100638.40
2023-05-05T06:07:55.773Z,100637.80
2023-05-05T06:10:27.607Z,100641.60
2023-05-05T06:13:01.296Z,100646.00
2023-05-05T06:15:30.377Z,100639.80
2023-05-05T06:17:58.665Z,100637.60
2023-05-05T06:20:27.658Z,100640.20
2023-05-05T06:22:55.772Z,100644.80
2023-05-05T06:25:24.563Z,100642.80
2023-05-05T06:27:53.109Z,100647.80
2023-05-05T06:30:20.956Z,100645.60
2023-05-05T06:32:49.262Z,100638.60
2023-05-05T06:35:17.452Z,100641.20
2023-05-05T06:37:45.733Z,100640.80
2023-05-05T06:40:13.598Z,100642.20
2023-05-05T06:42:41.891Z,100641.40
2023-05-05T06:45:11.601Z,100639.20
2023-05-05T06:47:42.237Z,100647.20
2023-05-05T06:50:10.772Z,100642.20
2023-05-05T06:52:38.937Z,100645.20
2023-05-05T06:55:07.303Z,100644.40
2023-05-05T06:57:35.105Z,100649.60
2023-05-05T07:00:06.078Z,100646.80
2023-05-05T07:02:34.234Z,100644.00
2023-05-05T07:05:02.341Z,100647.20
2023-05-05T07:07:31.807Z,100647.20
2023-05-05T07:10:00.055Z,100648.00
2023-05-05T07:12:29.279Z,100653.20
2023-05-05T07:14:57.432Z,100652.20
2023-05-05T07:17:25.336Z,100652.80
2023-05-05T07:19:55.029Z,100654.20
2023-05-05T07:22:22.832Z,100656.00
2023-05-05T07:24:53.437Z,100654.60
2023-05-05T07:27:22.527Z,100653.80
2023-05-05T07:29:51.310Z,100654.00
2023-05-05T07:32:19.396Z,100660.00
2023-05-05T07:34:47.395Z,100656.80
2023-05-05T07:37:15.333Z,100654.80
2023-05-05T07:39:43.290Z,100658.00
2023-05-05T07:42:11.489Z,100657.80
2023-05-05T07:44:39.408Z,100661.00
2023-05-05T07:47:07.307Z,100666.60
2023-05-05T07:49:36.619Z,100662.80
2023-05-05T07:52:05.044Z,100664.60
2023-05-05T07:54:32.977Z,100664.20
2023-05-05T07:57:01.905Z,100667.00
2023-05-05T07:59:29.863Z,100671.60
2023-05-05T08:01:57.756Z,100672.40
2023-05-05T08:04:25.671Z,100678.40
2023-05-05T08:06:53.604Z,100678.20
2023-05-05T08:09:21.520Z,100677.60
2023-05-05T08:11:49.538Z,100678.20
2023-05-05T08:14:17.406Z,100678.20
2023-05-05T08:16:45.302Z,100687.00
2023-05-05T08:19:27.672Z,100692.40
2023-05-05T08:21:56.593Z,100690.40
2023-05-05T08:24:24.451Z,100681.40
2023-05-05T08:26:52.200Z,100686.00
2023-05-05T08:29:20.064Z,100688.40
2023-05-05T08:31:48.063Z,100691.20
2023-05-05T08:34:16.106Z,100692.60
2023-05-05T08:36:43.949Z,100692.60
2023-05-05T08:39:12.047Z,100694.80
2023-05-05T08:41:39.967Z,100694.60
2023-05-05T08:44:08.387Z,100701.40
2023-05-05T08:46:36.842Z,100696.80
2023-05-05T08:49:05.782Z,100697.20
2023-05-05T08:51:38.571Z,100689.80
2023-05-05T08:54:06.859Z,100691.80
2023-05-05T08:56:38.417Z,100692.80
2023-05-05T08:59:06.274Z,100693.60
2023-05-05T09:01:34.362Z,100691.60
2023-05-05T09:04:04.072Z,100692.60
2023-05-05T09:06:33.889Z,100698.60
2023-05-05T09:09:01.983Z,100699.00
2023-05-05T09:11:29.846Z,100698.20
2023-05-05T09:13:57.644Z,100695.60
2023-05-05T09:16:25.677Z,100695.00
2023-05-05T09:19:11.539Z,100699.60
2023-05-05T09:21:46.790Z,100693.00
2023-05-05T09:24:15.701Z,100685.60
2023-05-05T09:26:45.162Z,100687.00
2023-05-05T09:29:20.067Z,100689.80
2023-05-05T09:32:08.894Z,100689.00
2023-05-05T09:34:37.526Z,100689.20
2023-05-05T09:37:06.230Z,100687.60
2023-05-05T09:39:34.401Z,100689.40
2023-05-05T09:42:02.997Z,100685.60
2023-05-05T09:44:35.699Z,100686.00
2023-05-05T09:47:07.153Z,100680.20
2023-05-05T09:49:40.071Z,100682.60
2023-05-05T09:52:16.632Z,100682.40
2023-05-05T09:54:44.803Z,100685.60
2023-05-05T09:57:38.785Z,100682.00
2023-05-05T10:00:08.197Z,100681.00
2023-05-05T10:02:38.424Z,100676.00
2023-05-05T10:05:10.224Z,100682.60
2023-05-05T10:07:40.368Z,100674.40
2023-05-05T10:10:12.341Z,100667.80
2023-05-05T10:12:40.567Z,100667.00
2023-05-05T10:15:10.041Z,100667.00
2023-05-05T10:18:02.297Z,100661.20
2023-05-05T10:20:36.312Z,100660.00
2023-05-05T10:23:06.397Z,100654.60
2023-05-05T10:25:42.687Z,100655.40
2023-05-05T10:28:10.665Z,100657.00
2023-05-05T10:30:42.297Z,100655.40
2023-05-05T10:35:55.686Z,100649.40
2023-05-05T10:38:24.800Z,100649.80
2023-05-05T10:40:54.919Z,100647.60
2023-05-05T10:43:22.686Z,100634.00
2023-05-05T10:45:50.622Z,100631.20
2023-05-05T10:48:33.375Z,100627.60
2023-05-05T10:51:39.344Z,100621.00
2023-05-05T10:54:14.074Z,100620.80
2023-05-05T10:56:42.052Z,100618.60
2023-05-05T10:59:38.111Z,100617.60
2023-05-05T11:02:28.516Z,100618.80
2023-05-05T11:05:14.478Z,100615.80
2023-05-05T11:07:43.347Z,100612.40
2023-05-05T11:10:12.606Z,100605.60
2023-05-05T11:13:10.152Z,100604.20
2023-05-05T11:15:38.339Z,100599.20
2023-05-05T11:18:08.289Z,100601.00
2023-05-05T11:20:43.727Z,100596.40
2023-05-05T11:23:12.942Z,100596.00
2023-05-05T11:25:45.377Z,100595.40
2023-05-05T11:28:18.095Z,100593.40
2023-05-05T11:31:06.185Z,100594.20
2023-05-05T11:33:38.290Z,100593.20
2023-05-05T11:36:07.650Z,100592.00
2023-05-05T11:38:50.821Z,100587.80
2023-05-05T11:41:27.923Z,100583.80
2023-05-05T11:44:11.063Z,100578.80
2023-05-05T11:47:05.001Z,100572.00
2023-05-05T11:49:33.707Z,100569.40
2023-05-05T11:52:05.907Z,100566.00
2023-05-05T11:54:35.374Z,100565.00
2023-05-05T11:57:05.596Z,100562.40
2023-05-05T11:59:34.037Z,100556.20
2023-05-05T12:02:03.271Z,100552.40
2023-05-05T12:04:32.031Z,100556.00
2023-05-05T12:06:59.970Z,100554.20
2023-05-05T12:09:27.822Z,100547.80
2023-05-05T12:11:58.836Z,100546.40
2023-05-05T12:14:26.775Z,100543.80
2023-05-05T12:16:58.722Z,100531.00
2023-05-05T12:19:33.318Z,100528.40
2023-05-05T12:22:02.139Z,100522.00
2023-05-05T12:24:30.543Z,100515.60
2023-05-05T12:27:08.533Z,100511.00
2023-05-05T12:29:36.391Z,100510.80
2023-05-05T12:32:04.640Z,100508.00
2023-05-05T12:34:32.721Z,100511.00
2023-05-05T12:37:01.011Z,100513.00
2023-05-05T12:39:38.449Z,100503.80
2023-05-05T12:42:06.654Z,100501.80
2023-05-05T12:44:36.326Z,100504.60
2023-05-05T12:47:04.995Z,100501.40
2023-05-05T12:49:48.498Z,100494.80
2023-05-05T12:52:16.522Z,100492.80
2023-05-05T12:54:55.084Z,100488.60
2023-05-05T12:57:23.354Z,100485.00
2023-05-05T12:59:52.790Z,100483.60
2023-05-05T13:02:21.054Z,100478.20
2023-05-05T13:04:49.279Z,100476.60
2023-05-05T13:07:19.276Z,100479.40
2023-05-05T13:09:50.475Z,100474.60
2023-05-05T13:12:18.589Z,100470.80
2023-05-05T13:14:46.829Z,100466.60
2023-05-05T13:17:14.932Z,100462.00
2023-05-05T13:19:46.127Z,100458.00
2023-05-05T13:22:14.313Z,100455.60
2023-05-05T13:24:51.541Z,100451.40
2023-05-05T13:27:20.666Z,100450.80
2023-05-05T13:29:48.713Z,100447.00
2023-05-05T13:32:16.677Z,100445.80
2023-05-05T13:34:44.791Z,100440.60
2023-05-05T13:37:12.645Z,100436.60
2023-05-05T13:39:40.669Z,100438.40
2023-05-05T13:42:08.809Z,100435.40
2023-05-05T13:44:36.790Z,100433.60
2023-05-05T13:47:04.870Z,100435.80
2023-05-05T13:49:32.830Z,100431.40
2023-05-05T13:52:00.722Z,100426.40
2023-05-05T13:54:28.668Z,100425.80
2023-05-05T13:56:57.947Z,100431.20
2023-05-05T13:59:25.937Z,100421.40
2023-05-05T14:01:54.014Z,100427.00
2023-05-05T14:04:21.990Z,100424.40
2023-05-05T14:06:49.898Z,100421.00
2023-05-05T14:09:17.878Z,100422.00
2023-05-05T14:11:45.869Z,100419.00
2023-05-05T14:14:13.840Z,100416.60
2023-05-05T14:16:41.709Z,100414.60
2023-05-05T14:19:09.518Z,100412.60
2023-05-05T14:21:37.470Z,100414.40
2023-05-05T14:24:06.344Z,100417.60
2023-05-05T14:26:34.189Z,100411.80
2023-05-05T14:29:02.261Z,100417.40
2023-05-05T14:31:30.363Z,100417.00
2023-05-05T14:33:58.496Z,100414.80
2023-05-05T14:36:27.084Z,100409.60
2023-05-05T14:38:55.111Z,100413.20
2023-05-05T14:41:23.006Z,100411.80
2023-05-05T14:43:51.193Z,100405.00
2023-05-05T14:46:19.105Z,100406.20
2023-05-05T14:48:47.466Z,100400.40
2023-05-05T14:51:16.050Z,100401.40
2023-05-05T14:53:44.196Z,100396.00
2023-05-05T14:56:12.167Z,100394.60
2023-05-05T14:58:40.519Z,100398.40
2023-05-05T15:01:08.490Z,100400.00
2023-05-05T15:03:36.463Z,100393.60
2023-05-05T15:06:05.693Z,100397.00
2023-05-05T15:08:33.856Z,100396.20
2023-05-05T15:11:01.917Z,100397.60
2023-05-05T15:13:30.192Z,100402.60
2023-05-05T15:15:58.187Z,100400.80
2023-05-05T15:18:26.297Z,100402.20
2023-05-05T15:20:54.229Z,100406.20
2023-05-05T15:23:22.177Z,100403.40
2023-05-05T15:25:50.301Z,100397.40
2023-05-05T15:28:18.827Z,100400.00
2023-05-05T15:30:46.892Z,100400.80
2023-05-05T15:33:14.861Z,100401.40
2023-05-05T15:35:43.085Z,100405.80
2023-05-05T15:38:11.009Z,100401.40
2023-05-05T15:40:39.105Z,100399.40
2023-05-05T15:43:07.056Z,100400.20
2023-05-05T15:45:35.215Z,100401.20
2023-05-05T15:48:03.132Z,100395.40
2023-05-05T15:50:31.058Z,100392.60
2023-05-05T15:52:59.122Z,100393.60
2023-05-05T15:55:27.357Z,100390.20
2023-05-05T15:57:55.575Z,100389.60
2023-05-05T16:00:23.751Z,100393.20
2023-05-05T16:02:51.733Z,100390.60
2023-05-05T16:05:22.105Z,100386.80
2023-05-05T16:07:51.843Z,100386.00
2023-05-05T16:10:21.190Z,100390.00
2023-05-05T16:12:49.273Z,100390.80
2023-05-05T16:15:17.707Z,100390.00
2023-05-05T16:17:45.834Z,100387.80
2023-05-05T16:20:13.763Z,100389.60
2023-05-05T16:22:41.659Z,100385.80
2023-05-05T16:25:09.779Z,100391.80
2023-05-05T16:27:38.153Z,100391.20
2023-05-05T16:30:07.250Z,100392.80
2023-05-05T16:32:35.232Z,100393.00
2023-05-05T16:35:03.170Z,100393.00
2023-05-05T16:37:31.061Z,100395.00
2023-05-05T16:39:58.996Z,100391.80
2023-05-05T16:42:27.133Z,100393.20
2023-05-05T16:44:55.314Z,100393.80
2023-05-05T16:47:23.412Z,100392.60
2023-05-05T16:49:52.631Z,100395.00
2023-05-05T16:52:20.583Z,100399.40
2023-05-05T16:54:55.283Z,100400.00
2023-05-05T16:57:23.744Z,100406.00
2023-05-05T16:59:55.095Z,100406.20
2023-05-05T17:02:23.113Z,100407.80
2023-05-05T17:04:51.103Z,100411.40
2023-05-05T17:07:19.036Z,100409.20
2023-05-05T17:09:47.018Z,100410.60
2023-05-05T17:12:14.960Z,100404.40
2023-05-05T17:14:43.111Z,100404.80
2023-05-05T17:17:11.220Z,100407.00
2023-05-05T17:19:39.313Z,100410.60
2023-05-05T17:22:07.503Z,100409.80
2023-05-05T17:24:35.732Z,100411.00
2023-05-05T17:27:03.973Z,100412.00
2023-05-05T17:29:32.751Z,100415.20
2023-05-05T17:32:00.830Z,100414.80
2023-05-05T17:34:28.753Z,100407.60
2023-05-05T17:36:56.843Z,100409.60
2023-05-05T17:39:25.009Z,100412.20
2023-05-05T17:41:52.851Z,100415.60
2023-05-05T17:44:21.574Z,100416.40
2023-05-05T17:46:49.639Z,100418.40
2023-05-05T17:49:17.574Z,100419.00
2023-05-05T17:51:45.692Z,100419.00
2023-05-05T17:54:13.533Z,100423.00
2023-05-05T17:56:41.499Z,100424.80
2023-05-05T17:59:09.393Z,100428.60
2023-05-05T18:01:37.219Z,100430.60
2023-05-05T18:04:05.377Z,100433.40
2023-05-05T18:06:33.420Z,100439.80
2023-05-05T18:09:01.290Z,100443.60
2023-05-05T18:11:31.087Z,100442.00
2023-05-05T18:13:59.074Z,100444.60
2023-05-05T18:16:26.866Z,100445.60
2023-05-05T18:18:54.784Z,100449.00
2023-05-05T18:21:22.730Z,100452.80
2023-05-05T18:23:50.815Z,100454.40
2023-05-05T18:26:18.562Z,100459.00
2023-05-05T18:28:46.549Z,100456.80
2023-05-05T18:31:15.023Z,100460.80
2023-05-05T18:33:43.571Z,100460.20
2023-05-05T18:36:12.495Z,100462.00
2023-05-05T18:38:40.459Z,100461.80
2023-05-05T18:44:22.816Z,100466.20
2023-05-05T18:46:51.434Z,100460.00
2023-05-05T18:49:19.364Z,100455.20
2023-05-05T18:51:47.252Z,100456.60
2023-05-05T18:54:15.226Z,100457.00
2023-05-05T18:56:43.045Z,100460.20
2023-05-05T18:59:11.148Z,100461.80
2023-05-05T19:01:39.228Z,100460.00
2023-05-05T19:04:15.593Z,100466.40
2023-05-05T19:06:52.533Z,100468.00
2023-05-05T19:09:21.008Z,100468.00
2023-05-05T19:11:48.984Z,100467.80
2023-05-05T19:14:17.813Z,100467.60
2023-05-05T19:16:46.105Z,100462.00
2023-05-05T19:19:14.072Z,100457.60
2023-05-05T19:21:41.958Z,100462.80
2023-05-05T19:24:09.849Z,100461.60
2023-05-05T19:26:37.921Z,100463.80
2023-05-05T19:29:05.777Z,100466.60
2023-05-05T19:31:33.731Z,100465.40
2023-05-05T19:34:02.960Z,100470.20
2023-05-05T19:36:31.820Z,100469.80
2023-05-05T19:39:01.841Z,100469.60
2023-05-05T19:41:30.886Z,100471.00
2023-05-05T19:43:58.872Z,100465.40
2023-05-05T19:46:26.951Z,100464.00
2023-05-05T19:48:54.903Z,100466.60
2023-05-05T19:51:23.041Z,100463.80
2023-05-05T19:53:50.974Z,100461.60
2023-05-05T19:56:18.958Z,100460.40
2023-05-05T19:58:54.066Z,100463.40
2023-05-05T20:01:22.007Z,100468.80
2023-05-05T20:03:51.290Z,100469.00
2023-05-05T20:06:19.389Z,100470.20
2023-05-05T20:08:49.774Z,100472.80
2023-05-05T20:11:19.726Z,100472.40
2023-05-05T20:13:47.879Z,100470.80
2023-05-05T20:16:18.016Z,100472.40
2023-05-05T20:18:48.719Z,100466.20
2023-05-05T20:21:17.080Z,100465.00
2023-05-05T20:23:45.834Z,100469.20
2023-05-05T20:26:16.251Z,100466.60
2023-05-05T20:28:45.896Z,100465.80
2023-05-05T20:31:14.712Z,100460.60
2023-05-05T20:33:42.620Z,100456.60
2023-05-05T20:36:11.454Z,100453.80
2023-05-05T20:38:43.037Z,100460.20
2023-05-05T20:41:11.616Z,100452.40
2023-05-05T20:43:39.681Z,100453.80
2023-05-05T20:46:13.410Z,100456.00
2023-05-05T20:48:43.909Z,100460.80
2023-05-05T20:51:11.784Z,100452.60
2023-05-05T20:53:39.700Z,100452.40
2023-05-05T20:56:08.944Z,100456.40
2023-05-05T20:58:37.589Z,100453.40
2023-05-05T21:01:05.574Z,100452.20
2023-05-05T21:03:35.998Z,100454.20
2023-05-05T21:06:04.747Z,100451.40
2023-05-05T21:08:35.099Z,100454.60
2023-05-05T21:11:03.133Z,100453.40
2023-05-05T21:13:32.042Z,100455.00
2023-05-05T21:16:00.751Z,100455.60
2023-05-05T21:18:28.626Z,100461.00
2023-05-05T21:20:56.582Z,100456.00
2023-05-05T21:23:24.570Z,100451.60
2023-05-05T21:25:52.607Z,100457.00
2023-05-05T21:28:20.529Z,100452.40
2023-05-05T21:31:10.182Z,100448.60
2023-05-05T21:33:38.871Z,100451.60
2023-05-05T21:36:06.925Z,100455.60
2023-05-05T21:38:36.877Z,100451.80
2023-05-05T21:41:04.841Z,100448.00
2023-05-05T21:43:32.677Z,100448.60
2023-05-05T21:46:04.432Z,100447.60
2023-05-05T21:48:32.794Z,100443.40
2023-05-05T21:51:01.155Z,100444.60
2023-05-05T21:53:28.976Z,100441.20
2023-05-05T21:55:56.982Z,100441.20
2023-05-05T21:58:25.229Z,100441.60
2023-05-05T22:00:53.255Z,100441.00
2023-05-05T22:03:21.374Z,100439.80
2023-05-05T22:05:49.513Z,100442.20
2023-05-05T22:08:17.940Z,100441.80
2023-05-05T22:10:46.374Z,100439.60
2023-05-05T22:13:14.821Z,100437.80
2023-05-05T22:15:47.214Z,100439.80
2023-05-05T22:18:15.907Z,100440.60
2023-05-05T22:20:44.118Z,100435.80
2023-05-05T22:23:12.060Z,100437.00
2023-05-05T22:25:40.127Z,100433.00
2023-05-05T22:28:08.099Z,100430.20
2023-05-05T22:30:36.272Z,100428.00
2023-05-05T22:33:04.382Z,100426.40
2023-05-05T22:35:32.606Z,100428.40
2023-05-05T22:38:00.594Z,100423.80
2023-05-05T22:40:28.541Z,100419.80
2023-05-05T22:42:56.388Z,100423.20
2023-05-05T22:45:24.308Z,100422.80
2023-05-05T22:47:52.516Z,100420.00
2023-05-05T22:50:20.375Z,100425.00
2023-05-05T22:52:48.383Z,100423.40
2023-05-05T22:55:16.566Z,100421.20
2023-05-05T22:57:44.429Z,100424.60
2023-05-05T23:00:12.619Z,100422.00
2023-05-05T23:02:40.837Z,100423.80
2023-05-05T23:05:09.459Z,100424.80
2023-05-05T23:07:37.699Z,100416.40
2023-05-05T23:10:06.494Z,100418.40
2023-05-05T23:12:34.467Z,100419.20
2023-05-05T23:15:02.185Z,100416.80
2023-05-05T23:17:30.114Z,100419.40
2023-05-05T23:19:58.115Z,100418.80
2023-05-05T23:22:26.033Z,100417.60
2023-05-05T23:24:54.025Z,100414.40
2023-05-05T23:27:23.101Z,100414.20
2023-05-05T23:29:51.032Z,100421.20
2023-05-05T23:32:19.359Z,100421.40
2023-05-05T23:34:47.187Z,100421.00
2023-05-05T23:37:14.976Z,100415.40
2023-05-05T23:39:42.976Z,100419.00
2023-05-05T23:42:10.919Z,100422.00
2023-05-05T23:44:38.788Z,100414.00
2023-05-05T23:47:06.968Z,100411.60
2023-05-05T23:49:34.690Z,100410.60
2023-05-05T23:52:03.326Z,100408.00
2023-05-05T23:54:31.263Z,100406.40
2023-05-05T23:57:00.331Z,100401.60
2023-05-05T23:59:28.287Z,100400.20
